Time;durP1;ratioP1;P1;durP2;ratioP2;P2;SDS_P1;SDS_P2;PMS_P1;PMS_P2;Temp;Humidity;BMP_temperature;BMP_pressure;BME280_temperature;BME280_humidity;BME280_pressure;Samples;Min_cycle;Max_cycle;Signal;HPM_P1;HPM_P2
2022/09/11 07:42:19;;;;;;;1.08;0.17;;;19.20;92.00;;;;;;686502;24;21620;-95
2022/09/11 07:44:47;;;;;;;0.50;0.20;;;19.40;91.70;;;;;;4735856;30;20129;-94
2022/09/11 07:47:14;;;;;;;0.77;0.28;;;19.40;91.60;;;;;;4745843;30;20142;-95
2022/09/11 07:49:46;;;;;;;1.10;0.10;;;19.60;92.00;;;;;;4748752;30;20573;-93
2022/09/11 07:52:14;;;;;;;1.05;0.10;;;19.60;91.10;;;;;;4749375;30;20052;-96
2022/09/11 07:54:49;;;;;;;0.43;0.20;;;19.70;90.70;;;;;;4733461;30;20043;-93
2022/09/11 07:57:20;;;;;;;1.48;0.13;;;19.70;90.80;;;;;;4748543;30;20063;-94
2022/09/11 07:59:49;;;;;;;4.10;0.30;;;19.70;90.40;;;;;;4758764;30;20048;-95
2022/09/11 08:02:17;;;;;;;0.25;0.10;;;19.90;90.50;;;;;;4761788;30;20052;-93
2022/09/11 08:04:44;;;;;;;0.70;0.10;;;19.90;90.00;;;;;;4763928;30;20075;-95
2022/09/11 08:07:12;;;;;;;0.60;0.10;;;20.10;91.20;;;;;;4749308;30;20044;-96
2022/09/11 08:09:40;;;;;;;1.15;0.20;;;20.20;90.80;;;;;;4743256;30;20048;-95
2022/09/11 08:12:08;;;;;;;1.60;0.20;;;20.20;88.90;;;;;;4751670;30;20134;-95
2022/09/11 08:14:36;;;;;;;2.85;0.20;;;20.10;89.70;;;;;;4754340;30;20090;-96
2022/09/11 08:17:08;;;;;;;1.70;0.20;;;20.10;88.90;;;;;;4744047;30;20059;-96
2022/09/11 08:19:37;;;;;;;2.63;0.20;;;20.10;88.90;;;;;;4751914;30;20143;-92
2022/09/11 08:22:07;;;;;;;0.80;0.20;;;20.30;88.20;;;;;;4741518;30;20490;-96
2022/09/11 08:24:41;;;;;;;0.77;0.13;;;20.50;86.20;;;;;;4747907;30;20520;-95
2022/09/11 08:27:10;;;;;;;1.27;0.20;;;20.30;86.20;;;;;;4735541;30;20471;-91
2022/09/11 08:29:40;;;;;;;1.17;0.50;;;20.40;86.60;;;;;;4758443;30;20100;-92
2022/09/11 08:32:08;;;;;;;0.40;0.10;;;20.40;87.40;;;;;;4753160;30;20048;-96
2022/09/11 08:34:37;;;;;;;0.70;0.10;;;20.30;86.30;;;;;;4737869;30;20055;-96
2022/09/11 08:37:05;;;;;;;0.30;0.10;;;20.00;86.60;;;;;;4739182;30;20075;-96
2022/09/11 08:39:34;;;;;;;0.20;0.10;;;19.90;88.10;;;;;;4751516;30;20086;-96
2022/09/11 08:42:12;;;;;;;2.97;0.20;;;19.90;89.30;;;;;;4750486;30;20055;-96
2022/09/11 08:45:18;;;;;;;1.30;0.20;;;20.00;87.90;;;;;;4758937;30;20063;-94
2022/09/11 08:47:55;;;;;;;1.75;0.40;;;20.10;88.00;;;;;;4730220;30;20049;-96
2022/09/11 08:50:26;;;;;;;0.88;0.10;;;20.20;87.40;;;;;;4718587;30;20099;-93
2022/09/11 08:52:56;;;;;;;0.52;0.28;;;20.40;86.30;;;;;;4712576;30;20056;-96
2022/09/11 08:55:38;;;;;;;0.85;0.10;;;20.40;85.60;;;;;;4733064;30;20454;-96
2022/09/11 08:58:17;;;;;;;0.60;0.13;;;20.50;84.70;;;;;;4717988;30;20406;-94
2022/09/11 09:01:05;;;;;;;0.22;0.20;;;20.40;85.40;;;;;;4723673;30;20135;-95
2022/09/11 09:04:14;;;;;;;2.47;0.28;;;20.40;86.40;;;;;;4692363;30;20151;-96
2022/09/11 09:07:01;;;;;;;2.15;0.50;;;20.50;86.70;;;;;;4705906;30;20052;-96
2022/09/11 09:09:58;;;;;;;1.88;0.30;;;20.70;87.20;;;;;;4720855;30;20044;-96
2022/09/11 09:12:50;;;;;;;2.03;0.40;;;20.50;83.60;;;;;;4720799;30;20056;-96
2022/09/11 09:15:46;;;;;;;1.23;0.20;;;20.40;85.10;;;;;;4704896;30;20050;-94
2022/09/11 09:18:36;;;;;;;0.30;0.10;;;20.50;85.70;;;;;;4748351;30;20394;-96
2022/09/11 09:21:30;;;;;;;0.95;0.17;;;20.50;85.10;;;;;;4741343;30;20055;-95
2022/09/11 09:24:02;;;;;;;0.40;0.10;;;20.70;85.80;;;;;;4766623;30;20071;-96
2022/09/11 09:26:39;;;;;;;1.10;0.10;;;20.80;83.90;;;;;;4758704;30;20074;-96
2022/09/11 09:29:22;;;;;;;2.22;0.10;;;20.90;82.80;;;;;;4755821;30;20055;-96
2022/09/11 09:31:58;;;;;;;0.40;0.10;;;21.20;84.10;;;;;;4770825;30;20044;-96
2022/09/11 09:34:32;;;;;;;1.10;0.10;;;21.40;82.80;;;;;;4752962;30;20067;-92
2022/09/11 09:37:05;;;;;;;0.85;0.10;;;21.30;82.10;;;;;;4752718;30;20052;-96
2022/09/11 09:39:36;;;;;;;0.25;0.10;;;21.00;83.60;;;;;;4742555;30;20075;-96
2022/09/11 09:42:19;;;;;;;0.20;0.08;;;20.80;82.80;;;;;;4767872;30;20171;-94
2022/09/11 09:45:15;;;;;;;0.65;0.30;;;20.70;83.30;;;;;;4774830;30;20059;-93
2022/09/11 09:47:44;;;;;;;0.57;0.13;;;20.70;81.70;;;;;;4771733;29;20051;-95
2022/09/11 09:50:21;;;;;;;1.10;0.10;;;20.60;81.10;;;;;;4761303;30;20047;-94
2022/09/11 09:52:50;;;;;;;2.47;0.22;;;20.60;80.30;;;;;;4776580;30;20061;-94
2022/09/11 09:55:19;;;;;;;4.22;0.70;;;20.80;80.00;;;;;;4761906;30;20116;-96
2022/09/11 09:57:47;;;;;;;0.47;0.20;;;21.20;81.00;;;;;;4756173;30;20058;-96
2022/09/11 10:00:18;;;;;;;1.48;0.10;;;21.30;79.90;;;;;;4790221;30;20071;-95
2022/09/11 10:02:49;;;;;;;0.22;0.10;;;21.40;79.80;;;;;;4761157;30;20116;-90
2022/09/11 10:05:30;;;;;;;1.20;0.35;;;21.10;78.30;;;;;;4769539;30;20051;-95
2022/09/11 10:08:06;;;;;;;0.70;0.20;;;21.10;79.80;;;;;;4778804;30;20047;-91
2022/09/11 10:10:36;;;;;;;0.45;0.10;;;21.00;78.90;;;;;;4766341;30;20486;-94
2022/09/11 10:13:23;;;;;;;0.60;0.13;;;21.00;79.00;;;;;;4759220;30;20091;-90
2022/09/11 10:16:00;;;;;;;1.60;0.57;;;21.00;79.40;;;;;;4774462;29;20085;-93
2022/09/11 10:18:41;;;;;;;1.27;0.13;;;21.10;78.40;;;;;;4770653;30;20067;-95
2022/09/11 10:21:12;;;;;;;1.17;0.23;;;20.90;79.20;;;;;;4788317;30;20047;-90
2022/09/11 10:23:59;;;;;;;0.50;0.10;;;21.10;80.60;;;;;;4774619;30;20493;-93
2022/09/11 10:26:33;;;;;;;0.77;0.20;;;21.00;78.80;;;;;;4759242;29;20058;-94
2022/09/11 10:29:11;;;;;;;1.20;0.10;;;21.00;79.30;;;;;;4773527;30;20071;-95
2022/09/11 10:31:46;;;;;;;2.15;0.20;;;21.00;78.70;;;;;;4773943;30;20098;-96
2022/09/11 10:34:17;;;;;;;0.95;0.38;;;21.00;77.50;;;;;;4775875;30;20059;-96
2022/09/11 10:36:59;;;;;;;1.73;0.20;;;21.10;79.20;;;;;;4773121;30;20109;-92
2022/09/11 10:39:30;;;;;;;1.00;0.10;;;21.20;79.30;;;;;;4756671;30;20463;-93
2022/09/11 10:42:08;;;;;;;0.20;0.10;;;21.10;79.20;;;;;;4750967;30;20152;-95
2022/09/11 10:44:41;;;;;;;1.15;0.20;;;21.40;78.70;;;;;;4769658;30;20506;-90
2022/09/11 10:47:23;;;;;;;0.40;0.20;;;21.50;76.40;;;;;;4757267;30;20562;-96
2022/09/11 10:50:16;;;;;;;0.95;0.20;;;21.60;78.30;;;;;;4775196;30;20059;-89
2022/09/11 10:52:46;;;;;;;0.40;0.13;;;21.60;75.20;;;;;;4769348;30;20074;-94
2022/09/11 10:55:17;;;;;;;0.38;0.20;;;21.60;75.60;;;;;;4758326;30;20056;-96
2022/09/11 10:57:50;;;;;;;0.57;0.20;;;21.60;75.70;;;;;;4776189;30;20059;-95
2022/09/11 11:00:26;;;;;;;0.82;0.28;;;21.70;75.80;;;;;;4758098;30;20047;-91
2022/09/11 11:03:20;;;;;;;0.30;0.20;;;21.60;75.00;;;;;;4769839;30;20047;-94
2022/09/11 11:06:18;;;;;;;0.28;0.10;;;21.30;75.80;;;;;;4778725;29;20061;-96
2022/09/11 11:09:04;;;;;;;1.67;0.22;;;21.10;77.40;;;;;;4768945;30;20055;-93
2022/09/11 11:12:00;;;;;;;0.30;0.13;;;21.00;78.40;;;;;;4756495;30;20043;-95
2022/09/11 11:14:36;;;;;;;0.70;0.30;;;20.90;80.00;;;;;;4762858;30;20078;-96
2022/09/11 11:17:13;;;;;;;2.30;0.20;;;20.80;81.00;;;;;;4760094;30;20166;-96
2022/09/11 11:20:13;;;;;;;0.68;0.20;;;20.70;81.00;;;;;;4769992;30;20055;-96
2022/09/11 11:22:59;;;;;;;2.05;0.30;;;20.60;80.70;;;;;;4750986;30;20113;-93
2022/09/11 11:25:46;;;;;;;1.05;0.20;;;20.50;80.40;;;;;;4785680;29;20501;-95
2022/09/11 11:28:50;;;;;;;1.05;0.30;;;20.60;81.10;;;;;;4757863;30;20063;-96
2022/09/11 11:31:41;;;;;;;0.85;0.32;;;20.60;82.00;;;;;;4767651;30;20056;-96
2022/09/11 11:34:25;;;;;;;;;;;20.70;81.80;;;;;;4769195;30;20080;-96
2022/09/11 11:37:05;;;;;;;0.60;0.40;;;20.80;83.10;;;;;;4775977;30;20028;-94
2022/09/11 11:39:42;;;;;;;2.00;0.57;;;20.70;82.60;;;;;;4768846;29;20047;-96
2022/09/11 11:42:13;;;;;;;2.17;0.60;;;20.70;83.20;;;;;;4770941;30;20078;-94
2022/09/11 11:44:57;;;;;;;0.75;0.30;;;20.70;83.90;;;;;;4753793;30;20067;-92
2022/09/11 11:47:31;;;;;;;1.58;0.50;;;20.70;83.80;;;;;;4772486;30;20044;-96
2022/09/11 11:50:09;;;;;;;1.75;0.40;;;20.60;83.80;;;;;;4771257;30;20047;-96
2022/09/11 11:52:45;;;;;;;1.33;0.20;;;20.80;85.80;;;;;;4776452;30;20063;-96
2022/09/11 11:55:15;;;;;;;0.60;0.30;;;20.90;85.90;;;;;;4754125;30;20130;-96
2022/09/11 11:58:18;;;;;;;1.73;0.30;;;21.10;85.00;;;;;;4771667;30;20086;-95
2022/09/11 12:00:54;;;;;;;3.42;0.43;;;21.20;84.30;;;;;;4750332;30;20490;-92
2022/09/11 12:03:31;;;;;;;1.85;0.60;;;21.60;83.80;;;;;;4769999;30;20056;-93
2022/09/11 12:05:59;;;;;;;1.38;0.30;;;21.60;85.00;;;;;;4753774;30;20409;-93
2022/09/11 12:08:26;;;;;;;0.98;0.50;;;21.30;82.80;;;;;;4768537;30;20400;-94
2022/09/11 12:11:02;;;;;;;0.88;0.30;;;21.00;84.00;;;;;;4757766;30;20491;-95
2022/09/11 12:13:33;;;;;;;0.50;0.28;;;20.40;91.80;;;;;;4770260;30;20055;-96
2022/09/11 12:16:09;;;;;;;1.70;0.20;;;20.10;94.90;;;;;;4757019;29;20440;-96
2022/09/11 12:18:37;;;;;;;1.23;0.30;;;19.90;94.70;;;;;;4813732;24;20049;-78
2022/09/11 12:21:23;;;;;;;0.65;0.30;;;19.90;95.00;;;;;;4779352;29;20064;-76
2022/09/11 12:23:56;;;;;;;2.65;0.50;;;19.90;95.50;;;;;;4779871;29;20165;-76
2022/09/11 12:26:27;;;;;;;0.50;0.20;;;20.20;98.30;;;;;;4782876;29;20043;-76
2022/09/11 12:29:11;;;;;;;0.60;0.30;;;20.30;95.90;;;;;;4779989;29;20066;-76
2022/09/11 12:31:51;;;;;;;1.83;0.50;;;20.60;96.30;;;;;;4776230;29;20139;-77
2022/09/11 12:34:22;;;;;;;1.27;0.30;;;20.70;96.80;;;;;;4767359;29;20047;-77
2022/09/11 12:37:00;;;;;;;0.80;0.40;;;20.90;95.70;;;;;;4767512;29;20488;-77
2022/09/11 12:39:32;;;;;;;1.33;0.35;;;21.10;95.70;;;;;;4766504;29;20050;-76
2022/09/11 12:42:26;;;;;;;0.40;0.13;;;21.10;95.40;;;;;;4786690;29;20051;-76
2022/09/11 12:44:58;;;;;;;0.60;0.10;;;21.00;92.40;;;;;;4773942;29;20055;-76
2022/09/11 12:47:41;;;;;;;1.42;0.20;;;20.80;88.70;;;;;;4779511;29;20054;-77
2022/09/11 12:50:11;;;;;;;0.45;0.10;;;20.70;87.60;;;;;;4779941;29;20088;-76
2022/09/11 12:52:51;;;;;;;4.32;0.70;;;20.60;87.70;;;;;;4784827;29;20043;-77
2022/09/11 12:55:32;;;;;;;0.57;0.10;;;20.60;88.80;;;;;;4762844;29;20047;-76
2022/09/11 12:58:03;;;;;;;1.02;0.10;;;20.50;86.70;;;;;;4788419;29;20395;-77
2022/09/11 13:00:41;;;;;;;0.43;0.20;;;20.30;87.20;;;;;;4771079;29;20513;-76
2022/09/11 13:03:24;;;;;;;1.95;0.32;;;20.20;89.50;;;;;;4779180;29;20062;-76
2022/09/11 13:06:07;;;;;;;0.85;0.20;;;20.20;90.60;;;;;;4769360;29;20140;-76
2022/09/11 13:09:01;;;;;;;1.10;0.30;;;20.10;91.00;;;;;;4778712;29;20057;-76
2022/09/11 13:11:48;;;;;;;2.78;0.40;;;20.00;91.90;;;;;;4763262;29;20451;-76
2022/09/11 13:14:27;;;;;;;1.38;0.20;;;20.00;91.60;;;;;;4768506;29;20538;-77
2022/09/11 13:16:56;;;;;;;1.30;0.47;;;19.90;91.80;;;;;;4770422;29;20506;-76
2022/09/11 13:19:32;;;;;;;1.35;0.40;;;19.90;92.20;;;;;;4766222;29;20647;-76
2022/09/11 13:21:59;;;;;;;0.60;0.10;;;19.90;91.90;;;;;;4789623;29;20088;-76
2022/09/11 13:24:32;;;;;;;0.75;0.30;;;19.90;91.90;;;;;;4789608;29;20051;-76
2022/09/11 13:27:02;;;;;;;1.65;0.25;;;19.80;91.30;;;;;;4768367;29;20077;-76
2022/09/11 13:29:33;;;;;;;0.55;0.20;;;19.80;91.70;;;;;;4783190;29;20159;-76
2022/09/11 13:32:10;;;;;;;0.47;0.10;;;19.80;91.70;;;;;;4769608;29;20425;-76
2022/09/11 13:34:41;;;;;;;0.75;0.10;;;19.80;91.40;;;;;;4763162;29;20051;-76
2022/09/11 13:37:11;;;;;;;0.47;0.10;;;19.70;91.10;;;;;;4776782;29;20058;-76
2022/09/11 13:39:41;;;;;;;0.55;0.17;;;19.70;91.60;;;;;;4775799;29;20066;-77
2022/09/11 13:42:16;;;;;;;0.88;0.25;;;19.60;91.90;;;;;;4774902;29;20142;-76
2022/09/11 13:44:49;;;;;;;0.32;0.10;;;19.50;91.70;;;;;;4769031;29;20691;-76
2022/09/11 13:47:20;;;;;;;1.00;0.10;;;19.60;92.00;;;;;;4789562;29;20553;-76
2022/09/11 13:49:50;;;;;;;1.53;0.10;;;19.70;91.60;;;;;;4779058;29;20069;-76
2022/09/11 13:52:20;;;;;;;2.83;0.40;;;19.80;92.40;;;;;;4782230;29;20103;-77
2022/09/11 13:54:50;;;;;;;0.75;0.10;;;19.90;92.80;;;;;;4765317;29;20047;-77
2022/09/11 13:57:23;;;;;;;2.30;0.10;;;19.90;92.70;;;;;;4764343;29;20490;-76
2022/09/11 13:59:53;;;;;;;0.40;0.20;;;19.80;92.50;;;;;;4766878;29;20248;-77
2022/09/11 14:02:43;;;;;;;0.22;0.08;;;19.80;91.90;;;;;;4769157;29;20061;-77
2022/09/11 14:05:15;;;;;;;0.93;0.10;;;19.80;91.70;;;;;;4778204;29;20058;-76
2022/09/11 14:07:48;;;;;;;1.60;0.40;;;19.80;91.30;;;;;;4790459;29;20049;-76
2022/09/11 14:10:32;;;;;;;0.98;0.20;;;19.80;91.20;;;;;;4780737;29;20318;-76
2022/09/11 14:13:13;;;;;;;1.08;0.20;;;19.80;91.40;;;;;;4778141;29;20388;-76
2022/09/11 14:16:01;;;;;;;1.48;0.20;;;19.70;91.90;;;;;;4788592;29;20484;-76
2022/09/11 14:18:39;;;;;;;0.28;0.10;;;19.70;92.10;;;;;;4746103;29;20071;-76
2022/09/11 14:21:17;;;;;;;1.00;0.10;;;19.80;92.10;;;;;;4765720;29;20055;-76
2022/09/11 14:23:55;;;;;;;0.20;0.10;;;19.90;92.70;;;;;;4769262;29;20141;-76
2022/09/11 14:26:29;;;;;;;0.75;0.15;;;19.90;92.70;;;;;;4785501;29;20055;-76
2022/09/11 14:29:35;;;;;;;1.05;0.20;;;20.00;91.60;;;;;;4780687;29;20108;-76
2022/09/11 14:32:35;;;;;;;1.00;0.30;;;20.00;92.00;;;;;;4773485;29;20135;-76
2022/09/11 14:35:08;;;;;;;0.50;0.20;;;20.10;90.70;;;;;;4766832;29;20480;-76
2022/09/11 14:37:44;;;;;;;;;;;20.10;90.60;;;;;;4781277;29;20058;-76
2022/09/11 14:40:16;;;;;;;0.28;0.13;;;20.20;90.80;;;;;;4777976;29;20459;-76
2022/09/11 14:42:44;;;;;;;2.25;0.45;;;20.20;91.20;;;;;;4779249;30;20495;-77
2022/09/11 14:45:19;;;;;;;0.77;0.20;;;20.20;90.70;;;;;;4784587;29;20055;-76
2022/09/11 14:47:46;;;;;;;0.38;0.10;;;20.20;90.40;;;;;;4756416;29;20051;-76
2022/09/11 14:50:13;;;;;;;2.00;0.73;;;20.30;90.90;;;;;;4775397;29;20088;-77
2022/09/11 14:52:41;;;;;;;0.82;0.30;;;20.30;90.00;;;;;;4773272;29;20055;-76
2022/09/11 14:55:18;;;;;;;0.47;0.10;;;20.40;90.50;;;;;;4769669;29;20514;-76
2022/09/11 14:57:47;;;;;;;0.40;0.20;;;20.50;88.10;;;;;;4781854;29;20081;-76
2022/09/11 15:00:15;;;;;;;0.47;0.10;;;20.50;87.30;;;;;;4783347;29;20466;-75
2022/09/11 15:02:43;;;;;;;0.73;0.10;;;20.60;88.80;;;;;;4769770;29;20128;-75
2022/09/11 15:05:20;;;;;;;0.35;0.10;;;20.60;86.60;;;;;;4774651;29;20090;-76
2022/09/11 15:07:47;;;;;;;0.45;0.10;;;20.60;85.30;;;;;;4789819;29;20094;-76
2022/09/11 15:10:15;;;;;;;0.80;0.10;;;20.70;86.10;;;;;;4791744;29;20503;-76
2022/09/11 15:12:43;;;;;;;1.50;0.20;;;20.80;88.40;;;;;;4763861;29;20046;-75
2022/09/11 15:15:13;;;;;;;0.20;0.10;;;20.80;84.20;;;;;;4785315;29;20039;-76
2022/09/11 15:17:40;;;;;;;0.50;0.20;;;20.70;82.20;;;;;;4760458;29;20055;-76
2022/09/11 15:20:08;;;;;;;2.40;1.38;;;20.70;82.80;;;;;;4766399;29;20062;-76
2022/09/11 15:22:37;;;;;;;1.90;0.68;;;20.60;84.40;;;;;;4774567;29;20522;-75
2022/09/11 15:25:05;;;;;;;1.17;0.50;;;20.60;86.30;;;;;;4775342;29;20043;-76
2022/09/11 15:27:32;;;;;;;1.95;0.90;;;20.60;87.70;;;;;;4756871;29;20793;-74
2022/09/11 15:30:00;;;;;;;0.45;0.20;;;20.60;84.70;;;;;;4777912;29;20053;-74
2022/09/11 15:32:27;;;;;;;0.60;0.10;;;20.50;84.30;;;;;;4774773;29;20054;-74
2022/09/11 15:34:54;;;;;;;0.10;0.08;;;20.60;84.60;;;;;;4771667;29;20051;-74
2022/09/11 15:37:22;;;;;;;0.30;0.10;;;20.50;85.50;;;;;;4781093;29;20108;-74
2022/09/11 15:39:49;;;;;;;0.10;0.00;;;20.50;84.70;;;;;;4766514;29;20172;-74
2022/09/11 15:42:17;;;;;;;0.20;0.10;;;20.50;85.20;;;;;;4764191;29;20182;-74
2022/09/11 15:44:45;;;;;;;0.22;0.10;;;20.50;85.80;;;;;;4790832;29;20055;-74
2022/09/11 15:47:12;;;;;;;1.20;0.10;;;20.50;85.30;;;;;;4790041;29;20536;-74
2022/09/11 15:49:43;;;;;;;1.10;0.00;;;20.60;84.70;;;;;;4774696;29;20511;-75
2022/09/11 15:52:10;;;;;;;0.57;0.10;;;20.60;83.50;;;;;;4785982;29;20138;-74
2022/09/11 15:54:37;;;;;;;0.88;0.10;;;20.60;83.20;;;;;;4776607;29;20047;-75
2022/09/11 15:57:04;;;;;;;0.32;0.20;;;20.60;80.10;;;;;;4776988;30;20063;-74
2022/09/11 15:59:31;;;;;;;1.58;0.20;;;20.50;80.30;;;;;;4786344;29;20055;-74
2022/09/11 16:01:59;;;;;;;0.65;0.10;;;20.50;80.80;;;;;;4780797;29;20502;-74
2022/09/11 16:04:27;;;;;;;0.40;0.20;;;20.40;81.30;;;;;;4761244;29;20047;-74
2022/09/11 16:06:55;;;;;;;5.60;1.67;;;20.40;82.70;;;;;;4776275;29;20069;-74
2022/09/11 16:09:26;;;;;;;0.50;0.17;;;20.30;83.30;;;;;;4762765;29;20457;-74
2022/09/11 16:11:53;;;;;;;25.95;14.02;;;20.30;83.50;;;;;;4788870;29;20047;-74
2022/09/11 16:14:26;;;;;;;13.70;6.57;;;20.20;83.30;;;;;;4778412;29;20055;-74
2022/09/11 16:16:56;;;;;;;55.72;22.63;;;20.20;84.00;;;;;;4777558;29;20047;-74
2022/09/11 16:19:26;;;;;;;9.93;5.63;;;20.10;84.70;;;;;;4763267;29;20067;-74
2022/09/11 16:21:59;;;;;;;2.13;0.85;;;20.10;85.10;;;;;;4787169;29;20112;-74
2022/09/11 16:24:29;;;;;;;77.90;36.03;;;20.00;84.40;;;;;;4775280;29;20059;-75
2022/09/11 16:26:56;;;;;;;11.93;6.85;;;20.00;84.00;;;;;;4774598;29;20380;-75
2022/09/11 16:29:24;;;;;;;27.77;12.15;;;19.90;82.70;;;;;;4781840;29;20059;-76
2022/09/11 16:32:04;;;;;;;24.50;11.80;;;19.90;82.60;;;;;;4778496;29;20051;-76
2022/09/11 16:34:32;;;;;;;24.30;13.60;;;19.90;82.90;;;;;;4758620;29;20411;-74
2022/09/11 16:36:59;;;;;;;9.55;5.80;;;19.80;82.40;;;;;;4772184;29;20275;-74
2022/09/11 16:39:27;;;;;;;25.38;14.43;;;19.80;82.90;;;;;;4783156;29;20084;-74
2022/09/11 16:41:54;;;;;;;25.83;14.43;;;19.80;83.50;;;;;;4771452;29;20055;-74
2022/09/11 16:44:21;;;;;;;26.90;12.98;;;19.80;83.50;;;;;;4787891;29;20074;-76
2022/09/11 16:46:48;;;;;;;71.88;33.17;;;19.70;82.90;;;;;;4775487;29;20055;-76
2022/09/11 16:49:18;;;;;;;16.73;9.57;;;19.70;83.90;;;;;;4777246;29;20051;-75
2022/09/11 16:52:17;;;;;;;4.03;0.82;;;19.60;83.70;;;;;;4767009;29;20047;-75
2022/09/11 16:54:46;;;;;;;0.45;0.20;;;19.50;84.60;;;;;;4745756;29;20054;-91
2022/09/11 16:57:15;;;;;;;0.45;0.20;;;19.50;83.60;;;;;;4765360;29;20059;-94
2022/09/11 16:59:42;;;;;;;0.50;0.30;;;19.40;83.30;;;;;;4745584;29;20104;-91
2022/09/11 17:02:09;;;;;;;0.32;0.20;;;19.40;83.20;;;;;;4776576;30;20047;-92
2022/09/11 17:04:37;;;;;;;0.55;0.10;;;19.30;83.80;;;;;;4751564;29;20112;-92
2022/09/11 17:07:04;;;;;;;0.57;0.20;;;19.30;83.80;;;;;;4759824;29;20134;-90
2022/09/11 17:09:32;;;;;;;0.70;0.30;;;19.20;84.80;;;;;;4761404;29;20531;-92
2022/09/11 17:11:59;;;;;;;0.50;0.20;;;19.20;85.40;;;;;;4759918;30;20039;-92
2022/09/11 17:14:28;;;;;;;0.95;0.38;;;19.20;85.00;;;;;;4777143;29;22060;-93
2022/09/11 17:16:55;;;;;;;2.10;0.30;;;19.20;85.50;;;;;;4753062;30;20057;-91
2022/09/11 17:19:23;;;;;;;1.23;0.20;;;19.20;86.00;;;;;;4748338;29;20082;-95
2022/09/11 17:21:50;;;;;;;0.85;0.20;;;19.10;87.00;;;;;;4750448;29;20040;-95
2022/09/11 17:24:20;;;;;;;0.90;0.70;;;19.10;87.70;;;;;;4749082;30;20051;-95
2022/09/11 17:26:50;;;;;;;1.60;0.40;;;19.10;88.60;;;;;;4769231;30;20760;-96
2022/09/11 17:29:18;;;;;;;0.88;0.30;;;19.10;88.60;;;;;;4752969;29;20055;-94
2022/09/11 17:31:45;;;;;;;1.27;0.50;;;19.10;90.00;;;;;;4769742;29;20100;-94
2022/09/11 17:34:13;;;;;;;2.25;0.45;;;19.00;90.20;;;;;;4751410;30;20075;-95
2022/09/11 17:36:42;;;;;;;1.33;0.40;;;19.00;90.50;;;;;;4754318;30;20054;-94
2022/09/11 17:39:09;;;;;;;3.10;0.40;;;19.00;90.80;;;;;;4763919;30;20055;-94
2022/09/11 17:41:37;;;;;;;1.23;0.40;;;18.90;91.20;;;;;;4759511;29;20055;-95
2022/09/11 17:44:05;;;;;;;0.95;0.25;;;19.00;91.40;;;;;;4770410;30;20051;-94
2022/09/11 17:46:34;;;;;;;0.60;0.30;;;18.90;91.90;;;;;;4756386;29;20074;-94
2022/09/11 17:49:02;;;;;;;0.75;0.40;;;18.90;91.90;;;;;;4752779;30;20068;-94
2022/09/11 17:51:29;;;;;;;1.17;0.50;;;18.90;92.10;;;;;;4750746;30;20142;-94
2022/09/11 17:53:57;;;;;;;1.85;0.55;;;18.80;92.10;;;;;;4770128;30;20570;-96
2022/09/11 17:56:29;;;;;;;1.95;0.40;;;18.80;92.90;;;;;;4762048;29;20104;-95
2022/09/11 17:58:59;;;;;;;0.52;0.30;;;18.80;93.10;;;;;;4756486;30;20082;-95
2022/09/11 18:01:30;;;;;;;0.50;0.20;;;18.80;93.60;;;;;;4758631;29;20147;-95
2022/09/11 18:03:58;;;;;;;0.75;0.20;;;18.80;93.90;;;;;;4756601;30;20110;-96
2022/09/11 18:06:35;;;;;;;1.77;0.32;;;18.70;94.50;;;;;;4761288;30;20050;-95
2022/09/11 18:09:10;;;;;;;1.20;0.20;;;18.70;94.90;;;;;;4772880;30;20066;-95
2022/09/11 18:11:41;;;;;;;1.48;0.30;;;18.70;95.30;;;;;;4757496;30;20051;-94
2022/09/11 18:14:10;;;;;;;3.10;0.30;;;18.70;96.00;;;;;;4767189;30;20054;-95
2022/09/11 18:16:38;;;;;;;0.93;0.30;;;18.70;96.20;;;;;;4767987;30;20652;-95
2022/09/11 18:19:06;;;;;;;0.70;0.20;;;18.70;96.50;;;;;;4756906;30;20762;-96
2022/09/11 18:21:34;;;;;;;1.75;0.30;;;18.70;96.60;;;;;;4754611;29;20039;-95
2022/09/11 18:24:06;;;;;;;1.98;0.30;;;18.60;97.00;;;;;;4755973;29;20504;-96
2022/09/11 18:26:40;;;;;;;0.88;0.28;;;18.60;96.80;;;;;;4758787;30;20060;-96
2022/09/11 18:29:11;;;;;;;0.40;0.20;;;18.50;97.20;;;;;;4768754;30;20410;-96
2022/09/11 18:31:42;;;;;;;1.60;0.30;;;18.50;97.30;;;;;;4771723;30;20055;-96
2022/09/11 18:34:14;;;;;;;0.55;0.30;;;18.60;96.80;;;;;;4759256;30;20047;-96
2022/09/11 18:36:42;;;;;;;0.80;0.38;;;18.50;96.70;;;;;;4769759;30;20429;-96
2022/09/11 18:39:12;;;;;;;0.85;0.30;;;18.50;96.90;;;;;;4756096;29;20123;-96
2022/09/11 18:41:40;;;;;;;1.15;0.30;;;18.50;96.40;;;;;;4754771;30;20078;-96
2022/09/11 18:44:12;;;;;;;0.60;0.20;;;18.50;96.50;;;;;;4773867;30;20059;-96
2022/09/11 18:46:51;;;;;;;1.60;0.20;;;18.40;96.50;;;;;;4757821;30;20062;-96
2022/09/11 18:49:18;;;;;;;1.08;0.35;;;18.40;96.70;;;;;;4770045;29;20050;-96
2022/09/11 18:51:47;;;;;;;1.67;0.20;;;18.40;96.40;;;;;;4758637;30;20074;-96
2022/09/11 18:54:18;;;;;;;0.50;0.25;;;18.40;96.50;;;;;;4748881;29;20146;-96
2022/09/11 18:56:48;;;;;;;0.65;0.20;;;18.40;96.50;;;;;;4768181;30;20127;-96
2022/09/11 18:59:15;;;;;;;0.85;0.30;;;18.40;96.50;;;;;;4746273;29;20056;-96
2022/09/11 19:01:43;;;;;;;1.42;0.20;;;18.40;96.60;;;;;;4740219;29;20108;-96
2022/09/11 19:04:12;;;;;;;1.50;0.30;;;18.30;96.70;;;;;;4753450;29;20063;-96
2022/09/11 19:06:40;;;;;;;1.55;0.20;;;18.30;96.70;;;;;;4765189;30;20051;-96
2022/09/11 19:09:11;;;;;;;0.47;0.20;;;18.30;97.00;;;;;;4758425;30;20047;-96
2022/09/11 19:11:38;;;;;;;0.52;0.20;;;18.20;97.20;;;;;;4767408;30;20057;-94
2022/09/11 19:14:09;;;;;;;0.60;0.35;;;18.20;97.30;;;;;;4750732;29;20060;-96
2022/09/11 19:16:38;;;;;;;1.20;0.40;;;18.20;97.40;;;;;;4750552;30;20043;-96
2022/09/11 19:19:08;;;;;;;0.45;0.30;;;18.20;97.40;;;;;;4760800;30;20131;-96
2022/09/11 19:21:39;;;;;;;2.05;0.20;;;18.20;97.60;;;;;;4751665;29;20057;-96
2022/09/11 19:24:06;;;;;;;1.45;0.30;;;18.20;97.70;;;;;;4764115;30;20059;-96
2022/09/11 19:26:37;;;;;;;1.30;0.28;;;18.20;97.70;;;;;;4764382;30;20075;-96
2022/09/11 19:29:12;;;;;;;1.85;0.30;;;18.10;98.10;;;;;;4762723;29;20055;-95
2022/09/11 19:31:39;;;;;;;0.80;0.30;;;18.10;98.00;;;;;;4756362;30;20245;-95
2022/09/11 19:34:10;;;;;;;1.00;0.30;;;18.10;98.30;;;;;;4760050;30;20073;-96
2022/09/11 19:36:39;;;;;;;0.63;0.30;;;18.10;98.20;;;;;;4749493;29;20128;-95
2022/09/11 19:39:12;;;;;;;0.85;0.35;;;18.10;98.30;;;;;;4750339;30;20051;-96
2022/09/11 19:41:40;;;;;;;0.88;0.30;;;18.00;98.40;;;;;;4785045;30;20071;-96
2022/09/11 19:44:11;;;;;;;2.05;0.30;;;18.00;98.50;;;;;;4746725;29;20059;-95
2022/09/11 19:46:40;;;;;;;0.95;0.30;;;18.00;98.60;;;;;;4750510;29;20047;-96
2022/09/11 19:49:09;;;;;;;0.88;0.35;;;18.00;98.70;;;;;;4767895;29;20051;-96
2022/09/11 19:51:41;;;;;;;1.58;0.40;;;18.00;98.60;;;;;;4763386;29;20077;-93
2022/09/11 19:54:11;;;;;;;1.08;0.30;;;18.00;98.30;;;;;;4755158;30;20060;-93
2022/09/11 19:56:39;;;;;;;1.48;0.32;;;17.90;97.70;;;;;;4753626;29;20438;-93
2022/09/11 19:59:07;;;;;;;2.10;0.30;;;17.80;97.80;;;;;;4761397;30;20489;-94
2022/09/11 20:07:50;;;;;;;0.98;0.30;;;17.80;97.10;;;;;;4928835;24;20046;-93
2022/09/11 20:13:48;;;;;;;1.50;0.32;;;17.70;97.00;;;;;;4871870;24;20074;-96
